createdAt,value
2023-04-02T00:00:37.580Z,4.80
2023-04-02T00:05:55.076Z,6.25
2023-04-02T00:11:02.470Z,7.35
2023-04-02T00:16:08.693Z,2.88
2023-04-02T00:21:26.290Z,2.80
2023-04-02T00:26:45.924Z,8.65
2023-04-02T00:31:52.032Z,14.30
2023-04-02T00:36:55.331Z,7.60
2023-04-02T00:42:05.432Z,4.47
2023-04-02T00:47:17.877Z,6.38
2023-04-02T00:52:25.681Z,8.77
2023-04-02T00:57:28.954Z,4.10
2023-04-02T01:02:36.008Z,5.85
2023-04-02T01:07:55.346Z,16.98
2023-04-02T01:13:22.843Z,7.00
2023-04-02T01:18:40.070Z,3.45
2023-04-02T01:23:56.478Z,4.80
2023-04-02T01:29:16.958Z,3.00
2023-04-02T01:34:25.162Z,3.63
2023-04-02T01:39:41.584Z,2.63
2023-04-02T01:44:53.562Z,4.70
2023-04-02T01:50:24.685Z,4.47
2023-04-02T01:55:51.021Z,5.95
2023-04-02T02:01:02.852Z,5.28
2023-04-02T02:06:07.694Z,4.97
2023-04-02T02:11:16.790Z,4.63
2023-04-02T02:16:20.038Z,6.43
2023-04-02T02:21:47.734Z,4.93
2023-04-02T02:27:05.344Z,5.00
2023-04-02T02:32:13.364Z,4.28
2023-04-02T02:37:28.925Z,3.03
2023-04-02T02:42:48.479Z,6.38
2023-04-02T02:47:54.029Z,10.05
2023-04-02T02:52:59.680Z,9.23
2023-04-02T02:58:14.775Z,15.02
2023-04-02T03:03:34.609Z,12.80
2023-04-02T03:08:49.604Z,9.45
2023-04-02T03:14:08.444Z,19.90
2023-04-02T03:19:21.059Z,6.30
2023-04-02T03:24:34.397Z,6.85
2023-04-02T03:29:42.960Z,8.18
2023-04-02T03:35:00.643Z,5.85
2023-04-02T03:40:15.612Z,4.40
2023-04-02T03:45:24.309Z,3.53
2023-04-02T03:50:45.633Z,3.95
2023-04-02T03:55:49.861Z,6.75
2023-04-02T04:01:12.743Z,5.82
2023-04-02T04:06:40.620Z,11.07
2023-04-02T04:11:51.170Z,7.13
2023-04-02T04:17:10.193Z,11.05
2023-04-02T04:22:20.502Z,4.13
2023-04-02T04:28:12.136Z,14.23
2023-04-02T04:33:29.385Z,10.80
2023-04-02T04:38:41.144Z,7.97
2023-04-02T04:43:56.566Z,10.32
2023-04-02T04:49:08.755Z,7.82
2023-04-02T04:54:15.470Z,9.88
2023-04-02T04:59:29.966Z,8.30
2023-04-02T05:04:39.518Z,10.82
2023-04-02T05:09:55.728Z,11.88
2023-04-02T05:15:22.140Z,11.57
2023-04-02T05:20:34.647Z,10.77
2023-04-02T05:25:49.799Z,9.48
2023-04-02T05:31:15.634Z,10.13
2023-04-02T05:36:46.921Z,6.60
2023-04-02T05:42:01.976Z,8.95
2023-04-02T05:47:25.712Z,3.38
2023-04-02T05:52:34.512Z,4.40
2023-04-02T05:58:21.392Z,3.40
2023-04-02T06:03:44.991Z,9.07
2023-04-02T06:08:58.061Z,9.98
2023-04-02T06:14:03.809Z,8.82
2023-04-02T06:19:14.022Z,7.88
2023-04-02T06:24:22.667Z,4.88
2023-04-02T06:29:39.899Z,17.88
2023-04-02T06:34:47.259Z,23.70
2023-04-02T06:39:52.730Z,14.98
2023-04-02T06:44:56.610Z,9.60
2023-04-02T06:50:48.228Z,7.68
2023-04-02T06:56:51.164Z,3.10
2023-04-02T07:02:13.523Z,2.55
2023-04-02T07:07:18.567Z,5.25
2023-04-02T07:12:25.561Z,2.67
2023-04-02T07:17:29.332Z,4.30
2023-04-02T07:22:32.338Z,1.50
2023-04-02T07:27:38.162Z,3.28
2023-04-02T07:32:41.688Z,4.10
2023-04-02T07:37:44.721Z,2.42
2023-04-02T07:42:47.809Z,9.88
2023-04-02T07:47:50.829Z,3.97
2023-04-02T07:52:53.843Z,2.17
2023-04-02T07:57:58.983Z,3.33
2023-04-02T08:03:01.963Z,1.83
2023-04-02T08:08:05.076Z,4.95
2023-04-02T08:13:08.251Z,1.70
2023-04-02T08:18:13.875Z,7.00
2023-04-02T08:23:18.304Z,1.38
2023-04-02T08:28:22.665Z,5.80
2023-04-02T08:33:26.443Z,1.35
2023-04-02T08:38:29.414Z,4.35
2023-04-02T08:43:41.059Z,3.47
2023-04-02T08:48:49.550Z,5.45
2023-04-02T08:53:55.966Z,1.95
2023-04-02T08:59:04.224Z,0.82
2023-04-02T09:04:15.783Z,0.63
2023-04-02T09:09:20.386Z,6.82
2023-04-02T09:14:45.151Z,0.85
2023-04-02T09:20:02.074Z,3.13
2023-04-02T09:25:12.624Z,1.83
2023-04-02T09:30:33.585Z,5.10
2023-04-02T09:35:54.761Z,1.95
2023-04-02T09:40:59.100Z,3.83
2023-04-02T09:46:36.823Z,0.88
2023-04-02T09:51:39.781Z,3.75
2023-04-02T09:57:01.501Z,12.50
2023-04-02T10:02:06.289Z,4.75
2023-04-02T10:07:31.027Z,2.63
2023-04-02T10:12:39.942Z,2.35
2023-04-02T10:17:44.490Z,1.95
2023-04-02T10:22:47.731Z,2.60
2023-04-02T10:28:02.754Z,4.47
2023-04-02T10:33:13.444Z,3.90
2023-04-02T10:38:31.757Z,5.88
2023-04-02T10:48:57.696Z,2.95
2023-04-02T10:54:14.437Z,3.50
2023-04-02T10:59:27.766Z,9.52
2023-04-02T11:04:42.007Z,2.67
2023-04-02T11:09:49.069Z,4.22
2023-04-02T11:14:54.464Z,1.50
2023-04-02T11:20:35.805Z,2.13
2023-04-02T11:25:39.187Z,2.88
2023-04-02T11:30:42.887Z,3.22
2023-04-02T11:35:45.838Z,4.47
2023-04-02T11:40:51.047Z,1.85
2023-04-02T11:45:57.364Z,4.28
2023-04-02T11:51:05.022Z,0.93
2023-04-02T11:56:32.820Z,3.90
2023-04-02T12:02:10.410Z,1.45
2023-04-02T12:07:35.168Z,2.80
2023-04-02T12:12:39.663Z,4.00
2023-04-02T12:17:42.721Z,0.82
2023-04-02T12:22:51.600Z,3.03
2023-04-02T12:28:11.092Z,1.33
2023-04-02T12:33:28.081Z,17.15
2023-04-02T12:38:37.112Z,4.93
2023-04-02T12:43:40.368Z,4.65
2023-04-02T12:48:43.412Z,4.25
2023-04-02T12:53:52.155Z,2.75
2023-04-02T12:58:59.982Z,2.35
2023-04-02T13:04:12.642Z,2.05
2023-04-02T13:09:43.132Z,4.25
2023-04-02T13:14:46.217Z,2.63
2023-04-02T13:19:49.195Z,3.55
2023-04-02T13:24:56.633Z,3.50
2023-04-02T13:30:08.490Z,2.53
2023-04-02T13:35:11.467Z,1.52
2023-04-02T13:40:16.569Z,4.10
2023-04-02T13:45:30.389Z,2.50
2023-04-02T13:50:35.273Z,2.35
2023-04-02T13:55:42.451Z,2.70
2023-04-02T14:00:46.469Z,4.88
2023-04-02T14:06:02.527Z,3.88
2023-04-02T14:11:23.928Z,3.20
2023-04-02T14:16:48.416Z,6.28
2023-04-02T14:22:15.736Z,4.15
2023-04-02T14:27:44.737Z,3.67
2023-04-02T14:33:10.266Z,5.43
2023-04-02T14:38:16.350Z,4.97
2023-04-02T14:43:37.471Z,6.25
2023-04-02T14:49:15.428Z,7.20
2023-04-02T14:54:28.681Z,6.40
2023-04-02T14:59:37.178Z,9.02
2023-04-02T15:04:51.371Z,4.18
2023-04-02T15:10:11.576Z,6.68
2023-04-02T15:15:40.471Z,7.55
2023-04-02T15:21:00.270Z,9.82
2023-04-02T15:26:10.377Z,10.77
2023-04-02T15:31:15.079Z,17.20
2023-04-02T15:36:33.180Z,6.03
2023-04-02T15:41:43.001Z,8.48
2023-04-02T15:46:51.865Z,7.72
2023-04-02T15:52:13.083Z,11.38
2023-04-02T15:57:28.110Z,7.72
2023-04-02T16:02:51.470Z,11.98
2023-04-02T16:08:32.518Z,15.98
2023-04-02T16:13:37.495Z,13.10
2023-04-02T16:18:43.204Z,7.18
2023-04-02T16:23:46.350Z,10.68
2023-04-02T16:28:51.891Z,5.85
2023-04-02T16:34:08.443Z,12.65
2023-04-02T16:39:36.208Z,11.27
2023-04-02T16:45:12.912Z,5.85
2023-04-02T16:50:21.932Z,7.63
2023-04-02T16:55:41.067Z,15.65
2023-04-02T17:00:53.346Z,11.38
2023-04-02T17:06:06.471Z,6.80
2023-04-02T17:11:21.799Z,8.98
2023-04-02T17:16:45.725Z,5.88
2023-04-02T17:21:53.190Z,5.80
2023-04-02T17:27:11.687Z,8.00
2023-04-02T17:32:30.437Z,6.53
2023-04-02T17:37:47.700Z,4.40
2023-04-02T17:43:18.053Z,4.88
2023-04-02T17:48:56.184Z,8.48
2023-04-02T17:54:04.821Z,6.82
2023-04-02T17:59:26.621Z,4.88
2023-04-02T18:04:57.736Z,10.57
2023-04-02T18:10:28.100Z,7.03
2023-04-02T18:15:33.730Z,5.43
2023-04-02T18:21:31.967Z,3.95
2023-04-02T18:26:43.435Z,5.53
2023-04-02T18:31:46.661Z,6.22
2023-04-02T18:37:12.951Z,12.27
2023-04-02T18:42:43.391Z,18.63
2023-04-02T18:47:55.286Z,16.10
2023-04-02T18:52:58.558Z,20.98
2023-04-02T18:58:10.406Z,15.50
2023-04-02T19:03:20.907Z,11.50
2023-04-02T19:08:48.288Z,14.55
2023-04-02T19:13:51.726Z,9.70
2023-04-02T19:19:03.690Z,6.70
2023-04-02T19:24:21.617Z,10.73
2023-04-02T19:29:27.207Z,6.95
2023-04-02T19:34:40.285Z,6.30
2023-04-02T19:39:55.856Z,12.98
2023-04-02T19:44:59.213Z,22.05
2023-04-02T19:50:02.255Z,16.90
2023-04-02T19:55:05.721Z,17.85
2023-04-02T20:00:12.037Z,11.05
2023-04-02T20:10:17.846Z,18.23
2023-04-02T20:15:20.843Z,8.32
2023-04-02T20:20:23.820Z,6.47
2023-04-02T20:25:26.997Z,8.32
2023-04-02T20:30:32.888Z,8.13
2023-04-02T20:35:37.939Z,7.22
2023-04-02T20:40:41.833Z,4.97
2023-04-02T20:45:54.902Z,6.72
2023-04-02T20:50:59.101Z,5.32
2023-04-02T20:56:10.450Z,6.85
2023-04-02T21:01:22.404Z,12.05
2023-04-02T21:06:28.044Z,10.40
2023-04-02T21:11:31.191Z,8.70
2023-04-02T21:16:34.314Z,3.80
2023-04-02T21:21:39.045Z,6.57
2023-04-02T21:26:42.385Z,6.05
2023-04-02T21:31:45.289Z,6.57
2023-04-02T21:36:49.442Z,9.95
2023-04-02T21:41:53.612Z,5.63
2023-04-02T21:46:56.670Z,14.68
2023-04-02T21:51:59.699Z,9.15
2023-04-02T21:57:02.655Z,9.18
2023-04-02T22:02:05.740Z,14.05
2023-04-02T22:07:08.668Z,9.98
2023-04-02T22:12:11.540Z,8.80
2023-04-02T22:17:14.519Z,13.07
2023-04-02T22:22:17.428Z,8.43
2023-04-02T22:27:20.398Z,7.28
2023-04-02T22:32:23.365Z,9.05
2023-04-02T22:37:26.403Z,14.10
2023-04-02T22:42:29.319Z,26.17
2023-04-02T22:47:32.305Z,27.65
2023-04-02T22:52:35.290Z,15.65
2023-04-02T22:57:38.272Z,18.98
2023-04-02T23:02:41.603Z,25.35
2023-04-02T23:07:44.488Z,14.48
2023-04-02T23:12:47.440Z,12.95
2023-04-02T23:17:50.399Z,13.93
2023-04-02T23:22:53.347Z,13.50
2023-04-02T23:27:56.639Z,11.25
2023-04-02T23:32:59.620Z,10.88
2023-04-02T23:38:02.622Z,6.07
2023-04-02T23:43:05.868Z,10.48
2023-04-02T23:48:08.922Z,25.08
2023-04-02T23:53:12.728Z,20.25
2023-04-02T23:58:15.836Z,14.05
